createdAt,value
2018-09-24T00:00:23.135Z,26.8
2018-09-24T00:03:20.032Z,26.8
2018-09-24T00:06:17.228Z,26.8
2018-09-24T00:12:11.330Z,27
2018-09-24T00:15:08.107Z,27
2018-09-24T00:18:05.310Z,27.1
2018-09-24T00:21:02.125Z,27.2
2018-09-24T00:23:59.346Z,27.2
2018-09-24T00:26:56.059Z,27.2
2018-09-24T00:29:53.297Z,27.3
2018-09-24T00:32:50.070Z,27.3
2018-09-24T00:38:44.301Z,27.4
2018-09-24T00:41:41.081Z,27.4
2018-09-24T00:44:38.330Z,27.4
2018-09-24T00:47:35.162Z,27.4
2018-09-24T00:50:32.359Z,27.4
2018-09-24T00:53:29.103Z,27.4
2018-09-24T00:56:26.324Z,27.5
2018-09-24T00:59:23.113Z,27.5
2018-09-24T01:02:20.167Z,27.5
2018-09-24T01:05:17.122Z,27.5
2018-09-24T01:08:14.324Z,27.5
2018-09-24T01:11:11.141Z,27.6
2018-09-24T01:17:05.526Z,27.6
2018-09-24T01:20:02.162Z,27.6
2018-09-24T01:22:59.399Z,27.6
2018-09-24T01:25:56.197Z,27.7
2018-09-24T01:28:53.435Z,27.7
2018-09-24T01:31:50.221Z,27.7
2018-09-24T01:34:47.441Z,27.8
2018-09-24T01:37:44.200Z,27.8
2018-09-24T01:40:41.386Z,27.8
2018-09-24T01:43:38.249Z,27.9
2018-09-24T01:46:35.452Z,27.9
2018-09-24T01:49:32.181Z,28
2018-09-24T01:52:29.438Z,28
2018-09-24T01:58:23.437Z,28.1
2018-09-24T02:01:20.154Z,28.2
2018-09-24T02:04:17.471Z,28.2
2018-09-24T02:07:14.260Z,28.2
2018-09-24T02:10:11.268Z,28.3
2018-09-24T02:13:08.238Z,28.3
2018-09-24T02:16:05.663Z,28.4
2018-09-24T02:19:02.271Z,28.4
2018-09-24T02:21:59.444Z,28.4
2018-09-24T02:24:56.241Z,28.4
2018-09-24T02:27:53.447Z,28.5
2018-09-24T02:30:50.230Z,28.6
2018-09-24T02:33:47.338Z,28.7
2018-09-24T02:36:44.302Z,28.7
2018-09-24T02:39:41.333Z,28.8
2018-09-24T02:42:38.319Z,28.8
2018-09-24T02:45:35.543Z,28.8
2018-09-24T02:48:32.322Z,28.9
2018-09-24T02:51:29.489Z,28.9
2018-09-24T02:54:26.267Z,29
2018-09-24T02:57:23.307Z,29.2
2018-09-24T03:00:20.339Z,29.2
2018-09-24T03:03:17.519Z,29.2
2018-09-24T03:06:14.251Z,29.4
2018-09-24T03:09:11.518Z,29.4
2018-09-24T03:12:08.289Z,29.4
2018-09-24T03:15:05.329Z,29.4
2018-09-24T03:18:02.293Z,29.5
2018-09-24T03:20:59.575Z,29.5
2018-09-24T03:23:56.316Z,29.5
2018-09-24T03:26:53.608Z,29.6
2018-09-24T03:29:50.382Z,29.7
2018-09-24T03:32:47.552Z,29.8
2018-09-24T03:35:44.401Z,29.9
2018-09-24T03:38:41.595Z,30.1
2018-09-24T03:41:38.326Z,30.2
2018-09-24T03:44:35.530Z,30.3
2018-09-24T03:47:32.343Z,30.4
2018-09-24T03:50:29.449Z,30.3
2018-09-24T03:53:26.415Z,30.5
2018-09-24T03:56:23.616Z,30.6
2018-09-24T03:59:20.359Z,30.7
2018-09-24T04:02:17.562Z,30.8
2018-09-24T04:05:14.425Z,30.8
2018-09-24T04:08:11.470Z,30.9
2018-09-24T04:11:08.410Z,30.9
2018-09-24T04:14:05.437Z,30.9
2018-09-24T04:17:02.411Z,31
2018-09-24T04:19:59.563Z,30.9
2018-09-24T04:22:56.465Z,31
2018-09-24T04:25:53.491Z,31.1
2018-09-24T04:28:50.451Z,31.2
2018-09-24T04:31:47.660Z,31.4
2018-09-24T04:34:44.477Z,31.6
2018-09-24T04:37:41.600Z,31.8
2018-09-24T04:40:38.424Z,32
2018-09-24T04:43:35.691Z,32.1
2018-09-24T04:46:32.446Z,32.2
2018-09-24T04:49:29.707Z,32.3
2018-09-24T04:52:26.502Z,32.4
2018-09-24T04:55:23.898Z,32.4
2018-09-24T04:58:20.517Z,32.5
2018-09-24T05:01:17.624Z,32.5
2018-09-24T05:04:14.555Z,32.6
2018-09-24T05:07:11.685Z,32.6
2018-09-24T05:10:08.565Z,32.7
2018-09-24T05:13:05.504Z,32.7
2018-09-24T05:16:02.489Z,32.6
2018-09-24T05:18:59.673Z,32.4
2018-09-24T05:21:56.463Z,32.5
2018-09-24T05:24:53.676Z,32.6
2018-09-24T05:27:50.500Z,32.6
2018-09-24T05:30:47.736Z,32.6
2018-09-24T05:33:44.499Z,32.7
2018-09-24T05:36:41.705Z,32.8
2018-09-24T05:39:38.508Z,32.9
2018-09-24T05:42:35.611Z,33
2018-09-24T05:45:32.605Z,33.1
2018-09-24T05:48:29.764Z,33.1
2018-09-24T05:51:26.536Z,33.2
2018-09-24T05:54:24.006Z,33.2
2018-09-24T05:57:20.549Z,33.2
2018-09-24T06:00:17.711Z,33.4
2018-09-24T06:03:14.538Z,33.4
2018-09-24T06:06:11.725Z,33.4
2018-09-24T06:09:08.562Z,33.5
2018-09-24T06:12:06.497Z,33.5
2018-09-24T06:15:02.612Z,33.6
2018-09-24T06:17:59.801Z,33.6
2018-09-24T06:20:56.572Z,33.6
2018-09-24T06:23:53.766Z,33.6
2018-09-24T06:26:50.576Z,33.6
2018-09-24T06:29:47.790Z,33.5
2018-09-24T06:32:44.659Z,33.6
2018-09-24T06:35:41.883Z,33.6
2018-09-24T06:38:38.614Z,33.6
2018-09-24T06:41:35.818Z,33.6
2018-09-24T06:44:32.617Z,33.6
2018-09-24T06:47:29.900Z,33.6
2018-09-24T06:50:26.648Z,33.5
2018-09-24T06:53:23.900Z,33.5
2018-09-24T06:56:20.686Z,33.5
2018-09-24T06:59:17.906Z,33.5
2018-09-24T07:02:14.668Z,33.5
2018-09-24T07:05:11.850Z,33.5
2018-09-24T07:08:08.667Z,33.5
2018-09-24T07:14:02.969Z,33.6
2018-09-24T07:16:59.667Z,33.6
2018-09-24T07:19:56.879Z,33.6
2018-09-24T07:22:53.694Z,33.6
2018-09-24T07:25:50.738Z,33.6
2018-09-24T07:28:47.685Z,33.8
2018-09-24T07:31:45.007Z,33.7
2018-09-24T07:34:41.720Z,33.8
2018-09-24T07:37:38.902Z,33.7
2018-09-24T07:40:35.775Z,33.7
2018-09-24T07:43:33.090Z,33.7
2018-09-24T07:46:29.735Z,33.8
2018-09-24T07:49:26.756Z,33.8
2018-09-24T07:52:23.740Z,33.9
2018-09-24T07:55:21.053Z,33.9
2018-09-24T07:58:17.755Z,34
2018-09-24T08:01:14.907Z,34
2018-09-24T08:04:11.822Z,34
2018-09-24T08:07:08.888Z,34.1
2018-09-24T08:10:05.788Z,34
2018-09-24T08:15:59.814Z,34.2
2018-09-24T08:18:56.765Z,34.2
2018-09-24T08:21:53.892Z,34.2
2018-09-24T08:24:50.861Z,34.1
2018-09-24T08:27:47.901Z,34.1
2018-09-24T08:30:44.874Z,34
2018-09-24T08:33:41.899Z,34.1
2018-09-24T08:36:38.898Z,34.1
2018-09-24T08:39:35.901Z,34.1
2018-09-24T08:42:32.807Z,34.2
2018-09-24T08:45:30.077Z,34
2018-09-24T08:48:26.845Z,34
2018-09-24T08:51:24.131Z,33.7
2018-09-24T08:54:20.850Z,33.5
2018-09-24T08:57:18.337Z,33.3
2018-09-24T09:00:14.893Z,33.3
2018-09-24T09:03:12.020Z,33.2
2018-09-24T09:06:08.815Z,33.1
2018-09-24T09:09:06.002Z,33.3
2018-09-24T09:12:02.925Z,33.3
2018-09-24T09:17:57.036Z,33.6
2018-09-24T09:20:53.882Z,33.5
2018-09-24T09:23:51.171Z,33.3
2018-09-24T09:26:47.892Z,33.1
2018-09-24T09:29:45.182Z,33
2018-09-24T09:32:41.968Z,32.8
2018-09-24T09:35:39.003Z,32.7
2018-09-24T09:38:35.980Z,32.6
2018-09-24T09:41:33.170Z,32.5
2018-09-24T09:44:29.971Z,32.6
2018-09-24T09:47:27.139Z,32.6
2018-09-24T09:50:23.938Z,32.6
2018-09-24T09:53:21.192Z,32.5
2018-09-24T09:56:18.023Z,32.6
2018-09-24T09:59:15.270Z,32.6
2018-09-24T10:02:11.999Z,32.6
2018-09-24T10:05:09.232Z,32.5
2018-09-24T10:08:05.944Z,32.5
2018-09-24T10:11:03.288Z,32.5
2018-09-24T10:14:00.020Z,32.4
2018-09-24T10:16:57.260Z,32.3
2018-09-24T10:19:54.026Z,32.2
2018-09-24T10:22:51.269Z,32.1
2018-09-24T10:25:47.979Z,32
2018-09-24T10:28:45.199Z,32
2018-09-24T10:31:41.999Z,31.9
2018-09-24T10:34:39.039Z,31.8
2018-09-24T10:37:35.974Z,31.6
2018-09-24T10:40:33.101Z,31.6
2018-09-24T10:43:30.078Z,31.4
2018-09-24T10:46:27.233Z,31.4
2018-09-24T10:49:24.074Z,31.3
2018-09-24T10:52:21.326Z,31.3
2018-09-24T10:55:18.069Z,31.2
2018-09-24T10:58:15.058Z,31
2018-09-24T11:01:12.105Z,31
2018-09-24T11:04:09.345Z,30.9
2018-09-24T11:07:06.034Z,30.9
2018-09-24T11:13:00.095Z,30.8
2018-09-24T11:15:57.345Z,30.8
2018-09-24T11:18:54.281Z,30.7
2018-09-24T11:24:48.304Z,30.6
2018-09-24T11:27:45.135Z,30.6
2018-09-24T11:30:42.285Z,30.5
2018-09-24T11:33:39.169Z,30.5
2018-09-24T11:36:36.237Z,30.5
2018-09-24T11:39:33.089Z,30.5
2018-09-24T11:42:30.358Z,30.4
2018-09-24T11:45:27.115Z,30.4
2018-09-24T11:48:24.327Z,30.4
2018-09-24T11:51:21.099Z,30.3
2018-09-24T11:54:18.233Z,30.3
2018-09-24T11:57:15.119Z,30.2
2018-09-24T12:00:12.443Z,30.2
2018-09-24T12:03:09.186Z,30.2
2018-09-24T12:06:06.408Z,30.2
2018-09-24T12:09:03.209Z,30.1
2018-09-24T12:12:00.165Z,30.1
2018-09-24T12:14:57.118Z,30.1
2018-09-24T12:17:54.328Z,30.1
2018-09-24T12:20:51.229Z,30
2018-09-24T12:23:48.330Z,30
2018-09-24T12:26:45.244Z,30
2018-09-24T12:29:42.337Z,29.9
2018-09-24T12:32:39.239Z,29.8
2018-09-24T12:35:36.426Z,29.7
2018-09-24T12:38:33.173Z,29.6
2018-09-24T12:41:30.286Z,29.6
2018-09-24T12:47:24.296Z,29.5
2018-09-24T12:53:18.512Z,29.4
2018-09-24T12:56:15.192Z,29.4
2018-09-24T12:59:12.379Z,29.3
2018-09-24T13:08:03.421Z,29.2
2018-09-24T13:11:00.220Z,29.1
2018-09-24T13:13:57.428Z,29.1
2018-09-24T13:16:54.285Z,29.1
2018-09-24T13:19:51.478Z,29
2018-09-24T13:22:48.318Z,29
2018-09-24T13:25:45.365Z,29
2018-09-24T13:28:42.326Z,29
2018-09-24T13:31:39.369Z,29
2018-09-24T13:34:36.342Z,28.9
2018-09-24T13:37:33.536Z,28.9
2018-09-24T13:40:30.343Z,28.9
2018-09-24T13:43:27.398Z,28.9
2018-09-24T13:46:24.350Z,28.8
2018-09-24T13:49:21.530Z,28.8
2018-09-24T13:55:15.525Z,28.8
2018-09-24T14:01:09.464Z,28.8
2018-09-24T14:04:06.393Z,28.7
2018-09-24T14:07:03.574Z,28.7
2018-09-24T14:10:00.390Z,28.6
2018-09-24T14:12:57.586Z,28.6
2018-09-24T14:15:54.406Z,28.6
2018-09-24T14:18:51.582Z,28.6
2018-09-24T14:21:48.327Z,28.6
2018-09-24T14:27:42.574Z,28.5
2018-09-24T14:30:39.442Z,28.5
2018-09-24T14:33:36.662Z,28.5
2018-09-24T14:36:33.430Z,28.5
2018-09-24T14:39:30.590Z,28.5
2018-09-24T14:42:27.436Z,28.5
2018-09-24T14:45:24.603Z,28.5
2018-09-24T14:48:21.375Z,28.4
2018-09-24T14:51:18.535Z,28.4
2018-09-24T14:54:15.371Z,28.4
2018-09-24T14:57:12.619Z,28.4
2018-09-24T15:00:09.427Z,28.4
2018-09-24T15:03:06.870Z,28.3
2018-09-24T15:06:03.438Z,28.3
2018-09-24T15:09:00.709Z,28.3
2018-09-24T15:11:57.459Z,28.4
2018-09-24T15:14:54.556Z,28.3
2018-09-24T15:17:51.387Z,28.3
2018-09-24T15:20:48.627Z,28.3
2018-09-24T15:23:45.406Z,28.3
2018-09-24T15:26:42.595Z,28.3
2018-09-24T15:29:39.424Z,28.2
2018-09-24T15:32:36.471Z,28.2
2018-09-24T15:38:30.601Z,28.1
2018-09-24T15:41:27.538Z,28.1
2018-09-24T15:47:21.726Z,28.1
2018-09-24T15:50:18.412Z,28.1
2018-09-24T15:53:15.683Z,28
2018-09-24T15:56:12.454Z,28
2018-09-24T15:59:09.633Z,28
2018-09-24T16:02:06.476Z,28
2018-09-24T16:05:03.694Z,28
2018-09-24T16:08:00.462Z,28.1
2018-09-24T16:10:57.720Z,28.1
2018-09-24T16:13:54.559Z,28.1
2018-09-24T16:16:51.577Z,28.1
2018-09-24T16:19:48.535Z,28.1
2018-09-24T16:22:45.571Z,28.1
2018-09-24T16:25:42.566Z,28.2
2018-09-24T16:28:39.753Z,28.2
2018-09-24T16:34:33.635Z,28.1
2018-09-24T16:37:30.568Z,28.2
2018-09-24T16:40:27.706Z,28.1
2018-09-24T16:43:24.663Z,28.1
2018-09-24T16:46:21.786Z,28.2
2018-09-24T16:49:18.525Z,28.2
2018-09-24T16:52:15.742Z,28.1
2018-09-24T16:55:12.545Z,28.1
2018-09-24T16:58:09.743Z,28.2
2018-09-24T17:01:06.548Z,28.2
2018-09-24T17:04:03.819Z,28.2
2018-09-24T17:07:00.624Z,28.2
2018-09-24T17:09:57.839Z,28.2
2018-09-24T17:12:54.615Z,28.2
2018-09-24T17:15:51.772Z,28.2
2018-09-24T17:18:48.585Z,28.2
2018-09-24T17:21:45.792Z,28.2
2018-09-24T17:24:42.569Z,28.2
2018-09-24T17:27:39.633Z,28.2
2018-09-24T17:30:36.669Z,28.2
2018-09-24T17:33:33.828Z,28.2
2018-09-24T17:36:30.674Z,28.3
2018-09-24T17:39:27.914Z,28.3
2018-09-24T17:42:24.612Z,28.3
2018-09-24T17:45:21.845Z,28.4
2018-09-24T17:48:18.689Z,28.3
2018-09-24T17:51:15.868Z,28.3
2018-09-24T17:54:12.696Z,28.3
2018-09-24T17:57:09.894Z,28.3
2018-09-24T18:00:06.761Z,28.3
2018-09-24T18:03:03.740Z,28.3
2018-09-24T18:06:00.772Z,28.3
2018-09-24T18:08:57.874Z,28.3
2018-09-24T18:11:54.666Z,28.3
2018-09-24T18:14:51.910Z,28.3
2018-09-24T18:17:48.662Z,28.3
2018-09-24T18:20:45.931Z,28.3
2018-09-24T18:23:42.719Z,28.3
2018-09-24T18:26:39.884Z,28.3
2018-09-24T18:29:36.685Z,28.2
2018-09-24T18:32:33.956Z,28.2
2018-09-24T18:35:30.759Z,28.2
2018-09-24T18:38:27.966Z,28.2
2018-09-24T18:41:24.731Z,28.2
2018-09-24T18:44:22.034Z,28.2
2018-09-24T18:47:18.762Z,28.2
2018-09-24T18:50:15.943Z,28.2
2018-09-24T18:53:12.807Z,28.1
2018-09-24T18:56:10.009Z,28.1
2018-09-24T18:59:06.790Z,28.2
2018-09-24T19:02:03.782Z,28.1
2018-09-24T19:05:00.814Z,28.1
2018-09-24T19:07:58.037Z,28.1
2018-09-24T19:10:54.751Z,28.1
2018-09-24T19:13:51.850Z,28.1
2018-09-24T19:16:48.817Z,28.1
2018-09-24T19:19:45.852Z,28.1
2018-09-24T19:22:42.757Z,28
2018-09-24T19:25:39.985Z,28.1
2018-09-24T19:28:37.018Z,28
2018-09-24T19:31:34.077Z,28
2018-09-24T19:34:30.797Z,28
2018-09-24T19:37:27.978Z,28
2018-09-24T19:40:24.784Z,28
2018-09-24T19:43:22.038Z,28
2018-09-24T19:46:18.853Z,28
2018-09-24T19:49:15.965Z,28
2018-09-24T19:52:12.868Z,28
2018-09-24T19:55:10.101Z,28
2018-09-24T20:01:04.083Z,27.9
2018-09-24T20:04:00.853Z,27.9
2018-09-24T20:06:58.047Z,27.9
2018-09-24T20:09:54.822Z,27.8
2018-09-24T20:12:52.026Z,27.8
2018-09-24T20:15:48.831Z,27.8
2018-09-24T20:18:46.033Z,27.8
2018-09-24T20:21:42.836Z,27.8
2018-09-24T20:24:40.077Z,27.8
2018-09-24T20:27:36.855Z,27.8
2018-09-24T20:33:31.048Z,27.8
2018-09-24T20:36:27.857Z,27.8
2018-09-24T20:39:25.125Z,27.9
2018-09-24T20:42:21.928Z,27.8
2018-09-24T20:45:19.190Z,27.8
2018-09-24T20:48:15.946Z,27.8
2018-09-24T20:51:13.180Z,27.8
2018-09-24T20:54:09.950Z,27.8
2018-09-24T20:57:06.924Z,27.8
2018-09-24T21:00:03.899Z,27.8
2018-09-24T21:05:57.923Z,27.8
2018-09-24T21:08:54.983Z,27.8
2018-09-24T21:11:52.372Z,27.8
2018-09-24T21:14:48.973Z,27.8
2018-09-24T21:17:46.018Z,27.8
2018-09-24T21:20:42.988Z,27.8
2018-09-24T21:23:40.213Z,27.8
2018-09-24T21:26:36.992Z,27.8
2018-09-24T21:29:34.237Z,27.8
2018-09-24T21:32:30.971Z,27.7
2018-09-24T21:35:28.116Z,27.7
2018-09-24T21:38:24.981Z,27.7
2018-09-24T21:41:22.195Z,27.7
2018-09-24T21:44:18.956Z,27.7
2018-09-24T21:47:16.120Z,27.7
2018-09-24T21:50:12.963Z,27.7
2018-09-24T21:53:10.214Z,27.7
2018-09-24T21:59:04.163Z,27.6
2018-09-24T22:04:58.265Z,27.6
2018-09-24T22:07:55.086Z,27.6
2018-09-24T22:10:52.123Z,27.6
2018-09-24T22:13:49.069Z,27.5
2018-09-24T22:19:43.270Z,27.5
2018-09-24T22:22:40.017Z,27.5
2018-09-24T22:25:37.241Z,27.5
2018-09-24T22:28:34.018Z,27.5
2018-09-24T22:31:31.215Z,27.5
2018-09-24T22:34:28.064Z,27.4
2018-09-24T22:37:25.217Z,27.4
2018-09-24T22:43:19.342Z,27.4
2018-09-24T22:46:16.103Z,27.3
2018-09-24T22:49:13.350Z,27.3
2018-09-24T22:52:10.045Z,27.3
2018-09-24T22:55:07.275Z,27.2
2018-09-24T22:58:04.053Z,27.2
2018-09-24T23:03:58.356Z,27.2
2018-09-24T23:06:55.140Z,27.2
2018-09-24T23:09:52.270Z,27.2
2018-09-24T23:12:49.160Z,27.2
2018-09-24T23:15:46.375Z,27.2
2018-09-24T23:18:43.146Z,27.2
2018-09-24T23:21:40.361Z,27.2
2018-09-24T23:24:37.148Z,27.1
2018-09-24T23:27:34.725Z,27.1
2018-09-24T23:30:31.104Z,27.2
2018-09-24T23:33:28.147Z,27.2
2018-09-24T23:36:25.112Z,27.2
2018-09-24T23:39:22.340Z,27.2
2018-09-24T23:42:19.186Z,27.2
2018-09-24T23:45:16.214Z,27.2
2018-09-24T23:48:13.206Z,27.3
2018-09-24T23:51:10.420Z,27.3
2018-09-24T23:54:07.201Z,27.3
2018-09-24T23:57:04.424Z,27.4
